sensor_id;sensor_type;location;lat;lon;timestamp;P1;durP1;ratioP1;P2;durP2;ratioP2
12112;SDS011;6120;52.250;8.478;2023-05-23T00:01:11;22.98;;;14.38;;
12112;SDS011;6120;52.250;8.478;2023-05-23T00:03:39;22.48;;;14.98;;
12112;SDS011;6120;52.250;8.478;2023-05-23T00:06:06;19.52;;;12.73;;
12112;SDS011;6120;52.250;8.478;2023-05-23T00:08:33;21.38;;;14.57;;
12112;SDS011;6120;52.250;8.478;2023-05-23T00:11:00;22.00;;;13.75;;
12112;SDS011;6120;52.250;8.478;2023-05-23T00:13:26;21.20;;;14.38;;
12112;SDS011;6120;52.250;8.478;2023-05-23T00:15:53;21.70;;;13.85;;
12112;SDS011;6120;52.250;8.478;2023-05-23T00:18:20;21.00;;;13.50;;
12112;SDS011;6120;52.250;8.478;2023-05-23T00:20:46;20.80;;;13.30;;
12112;SDS011;6120;52.250;8.478;2023-05-23T00:23:13;20.50;;;13.30;;
12112;SDS011;6120;52.250;8.478;2023-05-23T00:25:44;18.02;;;12.20;;
12112;SDS011;6120;52.250;8.478;2023-05-23T00:28:18;17.13;;;11.85;;
12112;SDS011;6120;52.250;8.478;2023-05-23T00:30:45;16.88;;;11.20;;
12112;SDS011;6120;52.250;8.478;2023-05-23T00:33:12;15.98;;;11.07;;
12112;SDS011;6120;52.250;8.478;2023-05-23T00:35:40;16.70;;;11.32;;
12112;SDS011;6120;52.250;8.478;2023-05-23T00:38:07;19.25;;;12.55;;
12112;SDS011;6120;52.250;8.478;2023-05-23T00:40:34;16.92;;;10.95;;
12112;SDS011;6120;52.250;8.478;2023-05-23T00:43:01;16.30;;;10.95;;
12112;SDS011;6120;52.250;8.478;2023-05-23T00:45:27;18.85;;;12.32;;
12112;SDS011;6120;52.250;8.478;2023-05-23T00:47:54;18.42;;;12.52;;
12112;SDS011;6120;52.250;8.478;2023-05-23T00:50:21;21.38;;;14.60;;
12112;SDS011;6120;52.250;8.478;2023-05-23T00:52:48;22.10;;;14.38;;
12112;SDS011;6120;52.250;8.478;2023-05-23T00:55:14;20.48;;;12.80;;
12112;SDS011;6120;52.250;8.478;2023-05-23T00:57:41;21.27;;;13.90;;
12112;SDS011;6120;52.250;8.478;2023-05-23T01:00:13;25.00;;;14.90;;
12112;SDS011;6120;52.250;8.478;2023-05-23T01:02:42;21.77;;;14.80;;
12112;SDS011;6120;52.250;8.478;2023-05-23T01:05:11;29.38;;;16.63;;
12112;SDS011;6120;52.250;8.478;2023-05-23T01:07:40;24.48;;;15.35;;
12112;SDS011;6120;52.250;8.478;2023-05-23T01:10:07;24.95;;;16.33;;
12112;SDS011;6120;52.250;8.478;2023-05-23T01:17:42;28.98;;;17.50;;
12112;SDS011;6120;52.250;8.478;2023-05-23T01:20:11;27.83;;;17.50;;
12112;SDS011;6120;52.250;8.478;2023-05-23T01:23:23;35.63;;;18.38;;
12112;SDS011;6120;52.250;8.478;2023-05-23T01:28:19;33.75;;;19.05;;
12112;SDS011;6120;52.250;8.478;2023-05-23T01:30:47;31.40;;;18.70;;
12112;SDS011;6120;52.250;8.478;2023-05-23T01:33:16;25.45;;;16.40;;
12112;SDS011;6120;52.250;8.478;2023-05-23T01:35:43;31.50;;;18.50;;
12112;SDS011;6120;52.250;8.478;2023-05-23T01:38:10;28.15;;;16.38;;
12112;SDS011;6120;52.250;8.478;2023-05-23T01:40:37;25.15;;;15.95;;
12112;SDS011;6120;52.250;8.478;2023-05-23T01:43:04;23.55;;;13.68;;
12112;SDS011;6120;52.250;8.478;2023-05-23T01:45:31;21.58;;;14.20;;
12112;SDS011;6120;52.250;8.478;2023-05-23T01:47:58;20.80;;;13.65;;
12112;SDS011;6120;52.250;8.478;2023-05-23T01:50:25;22.70;;;14.10;;
12112;SDS011;6120;52.250;8.478;2023-05-23T01:52:52;22.25;;;13.40;;
12112;SDS011;6120;52.250;8.478;2023-05-23T01:55:19;21.30;;;13.60;;
12112;SDS011;6120;52.250;8.478;2023-05-23T01:57:54;20.70;;;12.95;;
12112;SDS011;6120;52.250;8.478;2023-05-23T02:00:22;18.90;;;12.05;;
12112;SDS011;6120;52.250;8.478;2023-05-23T02:02:49;18.73;;;11.50;;
12112;SDS011;6120;52.250;8.478;2023-05-23T02:05:16;20.05;;;11.23;;
12112;SDS011;6120;52.250;8.478;2023-05-23T02:07:43;19.05;;;11.48;;
12112;SDS011;6120;52.250;8.478;2023-05-23T02:10:09;19.08;;;11.68;;
12112;SDS011;6120;52.250;8.478;2023-05-23T02:12:36;18.70;;;11.07;;
12112;SDS011;6120;52.250;8.478;2023-05-23T02:15:03;20.92;;;10.95;;
12112;SDS011;6120;52.250;8.478;2023-05-23T02:17:30;18.92;;;12.18;;
12112;SDS011;6120;52.250;8.478;2023-05-23T02:19:57;21.13;;;11.60;;
12112;SDS011;6120;52.250;8.478;2023-05-23T02:22:24;20.25;;;11.68;;
12112;SDS011;6120;52.250;8.478;2023-05-23T02:24:53;20.20;;;11.23;;
12112;SDS011;6120;52.250;8.478;2023-05-23T02:27:19;22.25;;;11.60;;
12112;SDS011;6120;52.250;8.478;2023-05-23T02:29:46;20.50;;;12.45;;
12112;SDS011;6120;52.250;8.478;2023-05-23T02:32:13;19.65;;;12.30;;
12112;SDS011;6120;52.250;8.478;2023-05-23T02:34:39;21.38;;;12.25;;
12112;SDS011;6120;52.250;8.478;2023-05-23T02:37:06;18.98;;;11.50;;
12112;SDS011;6120;52.250;8.478;2023-05-23T02:39:36;18.17;;;10.73;;
12112;SDS011;6120;52.250;8.478;2023-05-23T02:42:03;18.98;;;10.90;;
12112;SDS011;6120;52.250;8.478;2023-05-23T02:44:30;18.05;;;10.90;;
12112;SDS011;6120;52.250;8.478;2023-05-23T02:46:57;19.95;;;11.20;;
12112;SDS011;6120;52.250;8.478;2023-05-23T02:49:23;19.95;;;11.27;;
12112;SDS011;6120;52.250;8.478;2023-05-23T02:51:50;19.67;;;11.85;;
12112;SDS011;6120;52.250;8.478;2023-05-23T02:54:17;24.45;;;11.52;;
12112;SDS011;6120;52.250;8.478;2023-05-23T02:56:44;23.27;;;12.60;;
12112;SDS011;6120;52.250;8.478;2023-05-23T02:59:11;21.00;;;12.40;;
12112;SDS011;6120;52.250;8.478;2023-05-23T03:01:39;21.20;;;11.85;;
12112;SDS011;6120;52.250;8.478;2023-05-23T03:04:07;22.58;;;12.25;;
12112;SDS011;6120;52.250;8.478;2023-05-23T03:06:33;19.83;;;12.05;;
12112;SDS011;6120;52.250;8.478;2023-05-23T03:11:29;20.77;;;12.02;;
12112;SDS011;6120;52.250;8.478;2023-05-23T03:13:55;23.98;;;13.80;;
12112;SDS011;6120;52.250;8.478;2023-05-23T03:16:22;24.92;;;13.07;;
12112;SDS011;6120;52.250;8.478;2023-05-23T03:18:49;26.42;;;13.60;;
12112;SDS011;6120;52.250;8.478;2023-05-23T03:21:16;25.55;;;14.07;;
12112;SDS011;6120;52.250;8.478;2023-05-23T03:23:43;25.10;;;14.13;;
12112;SDS011;6120;52.250;8.478;2023-05-23T03:26:09;27.67;;;14.70;;
12112;SDS011;6120;52.250;8.478;2023-05-23T03:28:36;28.33;;;14.98;;
12112;SDS011;6120;52.250;8.478;2023-05-23T03:31:03;28.10;;;15.88;;
12112;SDS011;6120;52.250;8.478;2023-05-23T03:33:30;31.40;;;16.20;;
12112;SDS011;6120;52.250;8.478;2023-05-23T03:35:57;32.13;;;16.02;;
12112;SDS011;6120;52.250;8.478;2023-05-23T03:38:23;30.95;;;16.98;;
12112;SDS011;6120;52.250;8.478;2023-05-23T03:40:50;34.50;;;17.85;;
12112;SDS011;6120;52.250;8.478;2023-05-23T03:43:17;33.05;;;17.70;;
12112;SDS011;6120;52.250;8.478;2023-05-23T03:45:43;31.77;;;17.10;;
12112;SDS011;6120;52.250;8.478;2023-05-23T03:48:10;38.90;;;17.95;;
12112;SDS011;6120;52.250;8.478;2023-05-23T03:50:38;38.53;;;18.40;;
12112;SDS011;6120;52.250;8.478;2023-05-23T03:53:04;32.30;;;17.70;;
12112;SDS011;6120;52.250;8.478;2023-05-23T03:55:32;35.55;;;18.13;;
12112;SDS011;6120;52.250;8.478;2023-05-23T03:57:59;30.55;;;16.92;;
12112;SDS011;6120;52.250;8.478;2023-05-23T04:00:26;30.25;;;16.48;;
12112;SDS011;6120;52.250;8.478;2023-05-23T04:02:52;35.53;;;18.65;;
12112;SDS011;6120;52.250;8.478;2023-05-23T04:05:19;39.60;;;18.50;;
12112;SDS011;6120;52.250;8.478;2023-05-23T04:07:48;35.67;;;17.38;;
12112;SDS011;6120;52.250;8.478;2023-05-23T04:10:14;38.45;;;18.65;;
12112;SDS011;6120;52.250;8.478;2023-05-23T04:12:41;35.83;;;18.65;;
12112;SDS011;6120;52.250;8.478;2023-05-23T04:15:08;35.75;;;19.08;;
12112;SDS011;6120;52.250;8.478;2023-05-23T04:17:36;33.37;;;17.87;;
12112;SDS011;6120;52.250;8.478;2023-05-23T04:20:07;36.78;;;18.70;;
12112;SDS011;6120;52.250;8.478;2023-05-23T04:22:37;34.10;;;17.08;;
12112;SDS011;6120;52.250;8.478;2023-05-23T04:25:04;33.85;;;18.35;;
12112;SDS011;6120;52.250;8.478;2023-05-23T04:27:32;32.40;;;17.25;;
12112;SDS011;6120;52.250;8.478;2023-05-23T04:29:59;32.50;;;17.55;;
12112;SDS011;6120;52.250;8.478;2023-05-23T04:32:26;33.15;;;17.73;;
12112;SDS011;6120;52.250;8.478;2023-05-23T04:34:53;33.30;;;18.42;;
12112;SDS011;6120;52.250;8.478;2023-05-23T04:39:51;36.90;;;18.95;;
12112;SDS011;6120;52.250;8.478;2023-05-23T04:42:18;34.03;;;19.08;;
12112;SDS011;6120;52.250;8.478;2023-05-23T04:44:50;42.00;;;21.20;;
12112;SDS011;6120;52.250;8.478;2023-05-23T04:47:18;34.83;;;19.20;;
12112;SDS011;6120;52.250;8.478;2023-05-23T04:49:44;33.75;;;19.92;;
12112;SDS011;6120;52.250;8.478;2023-05-23T04:52:11;38.80;;;19.58;;
12112;SDS011;6120;52.250;8.478;2023-05-23T04:54:38;40.33;;;19.98;;
12112;SDS011;6120;52.250;8.478;2023-05-23T04:57:10;36.70;;;19.40;;
12112;SDS011;6120;52.250;8.478;2023-05-23T04:59:37;35.80;;;19.15;;
12112;SDS011;6120;52.250;8.478;2023-05-23T05:02:04;35.65;;;19.10;;
12112;SDS011;6120;52.250;8.478;2023-05-23T05:04:31;33.97;;;18.40;;
12112;SDS011;6120;52.250;8.478;2023-05-23T05:06:58;35.95;;;19.40;;
12112;SDS011;6120;52.250;8.478;2023-05-23T05:09:24;37.20;;;20.00;;
12112;SDS011;6120;52.250;8.478;2023-05-23T05:11:51;40.10;;;18.63;;
12112;SDS011;6120;52.250;8.478;2023-05-23T05:14:18;35.15;;;19.08;;
12112;SDS011;6120;52.250;8.478;2023-05-23T05:16:44;39.53;;;20.98;;
12112;SDS011;6120;52.250;8.478;2023-05-23T05:19:12;41.95;;;21.00;;
12112;SDS011;6120;52.250;8.478;2023-05-23T05:21:39;37.08;;;20.80;;
12112;SDS011;6120;52.250;8.478;2023-05-23T05:24:06;36.85;;;19.45;;
12112;SDS011;6120;52.250;8.478;2023-05-23T05:26:35;32.38;;;17.88;;
12112;SDS011;6120;52.250;8.478;2023-05-23T05:29:01;36.80;;;18.17;;
12112;SDS011;6120;52.250;8.478;2023-05-23T05:31:28;37.78;;;18.67;;
12112;SDS011;6120;52.250;8.478;2023-05-23T05:33:55;33.08;;;18.33;;
12112;SDS011;6120;52.250;8.478;2023-05-23T05:36:22;35.53;;;19.08;;
12112;SDS011;6120;52.250;8.478;2023-05-23T05:38:48;36.08;;;18.63;;
12112;SDS011;6120;52.250;8.478;2023-05-23T05:41:15;35.38;;;19.10;;
12112;SDS011;6120;52.250;8.478;2023-05-23T05:43:42;39.35;;;19.13;;
12112;SDS011;6120;52.250;8.478;2023-05-23T05:46:09;37.53;;;18.67;;
12112;SDS011;6120;52.250;8.478;2023-05-23T05:48:36;33.72;;;18.58;;
12112;SDS011;6120;52.250;8.478;2023-05-23T05:51:03;34.38;;;18.30;;
12112;SDS011;6120;52.250;8.478;2023-05-23T05:53:30;35.08;;;17.73;;
12112;SDS011;6120;52.250;8.478;2023-05-23T05:55:56;26.42;;;15.15;;
12112;SDS011;6120;52.250;8.478;2023-05-23T05:58:23;30.08;;;15.38;;
12112;SDS011;6120;52.250;8.478;2023-05-23T06:00:49;28.35;;;15.23;;
12112;SDS011;6120;52.250;8.478;2023-05-23T06:03:16;28.33;;;14.80;;
12112;SDS011;6120;52.250;8.478;2023-05-23T06:05:43;28.92;;;14.88;;
12112;SDS011;6120;52.250;8.478;2023-05-23T06:08:10;26.10;;;13.70;;
12112;SDS011;6120;52.250;8.478;2023-05-23T06:10:37;27.20;;;13.75;;
12112;SDS011;6120;52.250;8.478;2023-05-23T06:15:31;21.23;;;12.32;;
12112;SDS011;6120;52.250;8.478;2023-05-23T06:17:58;25.58;;;13.55;;
12112;SDS011;6120;52.250;8.478;2023-05-23T06:20:25;25.80;;;12.77;;
12112;SDS011;6120;52.250;8.478;2023-05-23T06:22:52;24.38;;;13.15;;
12112;SDS011;6120;52.250;8.478;2023-05-23T06:25:19;30.38;;;14.13;;
12112;SDS011;6120;52.250;8.478;2023-05-23T06:27:45;25.20;;;12.93;;
12112;SDS011;6120;52.250;8.478;2023-05-23T06:30:12;26.20;;;12.52;;
12112;SDS011;6120;52.250;8.478;2023-05-23T06:32:39;28.02;;;12.65;;
12112;SDS011;6120;52.250;8.478;2023-05-23T06:35:06;23.98;;;12.48;;
12112;SDS011;6120;52.250;8.478;2023-05-23T06:37:33;27.88;;;12.07;;
12112;SDS011;6120;52.250;8.478;2023-05-23T06:40:00;21.95;;;12.20;;
12112;SDS011;6120;52.250;8.478;2023-05-23T06:42:27;25.67;;;11.60;;
12112;SDS011;6120;52.250;8.478;2023-05-23T06:44:53;25.13;;;12.45;;
12112;SDS011;6120;52.250;8.478;2023-05-23T06:47:20;31.35;;;12.88;;
12112;SDS011;6120;52.250;8.478;2023-05-23T06:49:48;24.33;;;11.70;;
12112;SDS011;6120;52.250;8.478;2023-05-23T06:52:14;25.13;;;11.98;;
12112;SDS011;6120;52.250;8.478;2023-05-23T06:54:42;23.52;;;10.77;;
12112;SDS011;6120;52.250;8.478;2023-05-23T06:57:08;20.60;;;9.90;;
12112;SDS011;6120;52.250;8.478;2023-05-23T06:59:35;23.88;;;11.55;;
12112;SDS011;6120;52.250;8.478;2023-05-23T07:02:02;21.98;;;11.20;;
12112;SDS011;6120;52.250;8.478;2023-05-23T07:04:28;21.75;;;9.70;;
12112;SDS011;6120;52.250;8.478;2023-05-23T07:06:55;25.02;;;10.18;;
12112;SDS011;6120;52.250;8.478;2023-05-23T07:09:22;20.15;;;9.30;;
12112;SDS011;6120;52.250;8.478;2023-05-23T07:11:48;19.58;;;8.32;;
12112;SDS011;6120;52.250;8.478;2023-05-23T07:14:15;14.88;;;8.27;;
12112;SDS011;6120;52.250;8.478;2023-05-23T07:16:42;23.40;;;7.97;;
12112;SDS011;6120;52.250;8.478;2023-05-23T07:19:08;17.50;;;7.65;;
12112;SDS011;6120;52.250;8.478;2023-05-23T07:21:36;20.17;;;7.15;;
12112;SDS011;6120;52.250;8.478;2023-05-23T07:24:02;12.75;;;7.20;;
12112;SDS011;6120;52.250;8.478;2023-05-23T07:26:29;13.30;;;6.20;;
12112;SDS011;6120;52.250;8.478;2023-05-23T07:28:56;13.07;;;5.30;;
12112;SDS011;6120;52.250;8.478;2023-05-23T07:31:23;15.52;;;5.88;;
12112;SDS011;6120;52.250;8.478;2023-05-23T07:33:50;12.98;;;5.95;;
12112;SDS011;6120;52.250;8.478;2023-05-23T07:36:21;10.30;;;5.43;;
12112;SDS011;6120;52.250;8.478;2023-05-23T07:38:48;11.48;;;5.45;;
12112;SDS011;6120;52.250;8.478;2023-05-23T07:41:15;10.73;;;5.10;;
12112;SDS011;6120;52.250;8.478;2023-05-23T07:43:42;10.95;;;4.32;;
12112;SDS011;6120;52.250;8.478;2023-05-23T07:46:08;7.20;;;4.07;;
12112;SDS011;6120;52.250;8.478;2023-05-23T07:48:35;7.72;;;3.60;;
12112;SDS011;6120;52.250;8.478;2023-05-23T07:51:02;10.02;;;4.60;;
12112;SDS011;6120;52.250;8.478;2023-05-23T07:53:29;7.60;;;3.55;;
12112;SDS011;6120;52.250;8.478;2023-05-23T07:55:55;7.57;;;3.22;;
12112;SDS011;6120;52.250;8.478;2023-05-23T07:58:22;6.18;;;3.38;;
12112;SDS011;6120;52.250;8.478;2023-05-23T08:00:49;7.43;;;3.25;;
12112;SDS011;6120;52.250;8.478;2023-05-23T08:03:18;6.47;;;3.55;;
12112;SDS011;6120;52.250;8.478;2023-05-23T08:05:46;6.57;;;2.70;;
12112;SDS011;6120;52.250;8.478;2023-05-23T08:08:13;6.60;;;2.70;;
12112;SDS011;6120;52.250;8.478;2023-05-23T08:10:40;5.22;;;2.60;;
12112;SDS011;6120;52.250;8.478;2023-05-23T08:13:08;6.55;;;2.85;;
12112;SDS011;6120;52.250;8.478;2023-05-23T08:15:36;5.55;;;2.63;;
12112;SDS011;6120;52.250;8.478;2023-05-23T08:18:03;5.05;;;2.50;;
12112;SDS011;6120;52.250;8.478;2023-05-23T08:20:30;5.55;;;2.58;;
12112;SDS011;6120;52.250;8.478;2023-05-23T08:23:00;7.82;;;3.50;;
12112;SDS011;6120;52.250;8.478;2023-05-23T08:25:27;6.47;;;2.85;;
12112;SDS011;6120;52.250;8.478;2023-05-23T08:27:58;8.68;;;3.25;;
12112;SDS011;6120;52.250;8.478;2023-05-23T08:30:26;7.10;;;3.60;;
12112;SDS011;6120;52.250;8.478;2023-05-23T08:32:54;6.22;;;3.47;;
12112;SDS011;6120;52.250;8.478;2023-05-23T08:35:21;10.63;;;3.63;;
12112;SDS011;6120;52.250;8.478;2023-05-23T08:37:48;11.15;;;3.85;;
12112;SDS011;6120;52.250;8.478;2023-05-23T08:40:19;7.63;;;3.42;;
12112;SDS011;6120;52.250;8.478;2023-05-23T08:42:48;6.07;;;3.35;;
12112;SDS011;6120;52.250;8.478;2023-05-23T08:45:15;4.72;;;2.72;;
12112;SDS011;6120;52.250;8.478;2023-05-23T08:47:43;9.85;;;3.40;;
12112;SDS011;6120;52.250;8.478;2023-05-23T08:50:14;9.50;;;3.47;;
12112;SDS011;6120;52.250;8.478;2023-05-23T08:55:20;9.88;;;4.38;;
12112;SDS011;6120;52.250;8.478;2023-05-23T08:57:50;13.80;;;4.63;;
12112;SDS011;6120;52.250;8.478;2023-05-23T09:00:17;11.38;;;6.05;;
12112;SDS011;6120;52.250;8.478;2023-05-23T09:02:45;14.18;;;6.50;;
12112;SDS011;6120;52.250;8.478;2023-05-23T09:05:12;17.90;;;6.90;;
12112;SDS011;6120;52.250;8.478;2023-05-23T09:07:40;20.17;;;7.45;;
12112;SDS011;6120;52.250;8.478;2023-05-23T09:10:07;17.95;;;7.88;;
12112;SDS011;6120;52.250;8.478;2023-05-23T09:12:35;17.73;;;7.07;;
12112;SDS011;6120;52.250;8.478;2023-05-23T09:15:03;29.58;;;8.23;;
12112;SDS011;6120;52.250;8.478;2023-05-23T09:17:31;21.50;;;8.40;;
12112;SDS011;6120;52.250;8.478;2023-05-23T09:19:58;15.52;;;7.75;;
12112;SDS011;6120;52.250;8.478;2023-05-23T09:22:30;28.92;;;8.55;;
12112;SDS011;6120;52.250;8.478;2023-05-23T09:24:57;17.27;;;7.30;;
12112;SDS011;6120;52.250;8.478;2023-05-23T09:27:23;16.83;;;8.52;;
12112;SDS011;6120;52.250;8.478;2023-05-23T09:29:50;15.32;;;7.97;;
12112;SDS011;6120;52.250;8.478;2023-05-23T09:32:17;26.02;;;9.65;;
12112;SDS011;6120;52.250;8.478;2023-05-23T09:34:55;21.67;;;8.20;;
12112;SDS011;6120;52.250;8.478;2023-05-23T09:37:33;25.25;;;9.15;;
12112;SDS011;6120;52.250;8.478;2023-05-23T09:40:00;18.30;;;8.88;;
12112;SDS011;6120;52.250;8.478;2023-05-23T09:42:32;17.05;;;7.72;;
12112;SDS011;6120;52.250;8.478;2023-05-23T09:45:02;19.67;;;7.30;;
12112;SDS011;6120;52.250;8.478;2023-05-23T09:47:30;22.35;;;7.03;;
12112;SDS011;6120;52.250;8.478;2023-05-23T09:49:57;26.88;;;8.27;;
12112;SDS011;6120;52.250;8.478;2023-05-23T09:52:24;13.73;;;7.57;;
12112;SDS011;6120;52.250;8.478;2023-05-23T09:54:51;25.77;;;8.45;;
12112;SDS011;6120;52.250;8.478;2023-05-23T09:57:18;19.42;;;6.70;;
12112;SDS011;6120;52.250;8.478;2023-05-23T09:59:49;15.52;;;6.60;;
12112;SDS011;6120;52.250;8.478;2023-05-23T10:02:23;18.33;;;6.88;;
12112;SDS011;6120;52.250;8.478;2023-05-23T10:05:03;20.27;;;7.10;;
12112;SDS011;6120;52.250;8.478;2023-05-23T10:07:32;21.63;;;7.30;;
12112;SDS011;6120;52.250;8.478;2023-05-23T10:10:00;20.05;;;6.43;;
12112;SDS011;6120;52.250;8.478;2023-05-23T10:15:03;20.25;;;6.25;;
12112;SDS011;6120;52.250;8.478;2023-05-23T10:17:35;15.82;;;6.90;;
12112;SDS011;6120;52.250;8.478;2023-05-23T10:20:07;15.38;;;7.13;;
12112;SDS011;6120;52.250;8.478;2023-05-23T10:22:37;25.63;;;6.88;;
12112;SDS011;6120;52.250;8.478;2023-05-23T10:25:04;16.00;;;5.97;;
12112;SDS011;6120;52.250;8.478;2023-05-23T10:27:33;17.52;;;7.28;;
12112;SDS011;6120;52.250;8.478;2023-05-23T10:30:00;85.72;;;31.05;;
12112;SDS011;6120;52.250;8.478;2023-05-23T10:32:27;18.33;;;7.15;;
12112;SDS011;6120;52.250;8.478;2023-05-23T10:35:12;16.70;;;6.05;;
12112;SDS011;6120;52.250;8.478;2023-05-23T10:42:54;19.45;;;6.65;;
12112;SDS011;6120;52.250;8.478;2023-05-23T10:45:23;14.43;;;5.20;;
12112;SDS011;6120;52.250;8.478;2023-05-23T10:47:50;19.33;;;6.72;;
12112;SDS011;6120;52.250;8.478;2023-05-23T10:50:34;22.10;;;7.18;;
12112;SDS011;6120;52.250;8.478;2023-05-23T10:53:03;12.80;;;5.47;;
12112;SDS011;6120;52.250;8.478;2023-05-23T10:55:34;18.17;;;7.43;;
12112;SDS011;6120;52.250;8.478;2023-05-23T11:00:37;23.25;;;6.20;;
12112;SDS011;6120;52.250;8.478;2023-05-23T11:03:05;18.83;;;6.30;;
12112;SDS011;6120;52.250;8.478;2023-05-23T11:05:34;14.52;;;5.13;;
12112;SDS011;6120;52.250;8.478;2023-05-23T11:08:10;19.40;;;4.80;;
12112;SDS011;6120;52.250;8.478;2023-05-23T11:10:57;12.15;;;5.05;;
12112;SDS011;6120;52.250;8.478;2023-05-23T11:13:25;14.77;;;4.30;;
12112;SDS011;6120;52.250;8.478;2023-05-23T11:16:39;13.80;;;4.13;;
12112;SDS011;6120;52.250;8.478;2023-05-23T11:21:57;21.23;;;4.38;;
12112;SDS011;6120;52.250;8.478;2023-05-23T11:24:46;14.90;;;4.65;;
12112;SDS011;6120;52.250;8.478;2023-05-23T11:27:18;10.82;;;3.78;;
12112;SDS011;6120;52.250;8.478;2023-05-23T11:29:55;14.35;;;4.93;;
12112;SDS011;6120;52.250;8.478;2023-05-23T11:32:32;16.92;;;4.35;;
12112;SDS011;6120;52.250;8.478;2023-05-23T11:35:03;20.08;;;4.95;;
12112;SDS011;6120;52.250;8.478;2023-05-23T11:37:31;10.18;;;3.92;;
12112;SDS011;6120;52.250;8.478;2023-05-23T11:39:58;14.45;;;4.35;;
12112;SDS011;6120;52.250;8.478;2023-05-23T11:42:25;15.57;;;4.28;;
12112;SDS011;6120;52.250;8.478;2023-05-23T11:44:51;23.77;;;4.95;;
12112;SDS011;6120;52.250;8.478;2023-05-23T11:47:18;13.40;;;3.83;;
12112;SDS011;6120;52.250;8.478;2023-05-23T11:49:45;19.13;;;4.22;;
12112;SDS011;6120;52.250;8.478;2023-05-23T11:52:12;18.17;;;4.95;;
12112;SDS011;6120;52.250;8.478;2023-05-23T11:54:40;20.25;;;4.40;;
12112;SDS011;6120;52.250;8.478;2023-05-23T11:57:10;18.33;;;5.35;;
12112;SDS011;6120;52.250;8.478;2023-05-23T11:59:36;17.15;;;4.78;;
12112;SDS011;6120;52.250;8.478;2023-05-23T12:02:06;16.08;;;4.20;;
12112;SDS011;6120;52.250;8.478;2023-05-23T12:04:34;18.05;;;4.38;;
12112;SDS011;6120;52.250;8.478;2023-05-23T12:09:30;22.13;;;3.78;;
12112;SDS011;6120;52.250;8.478;2023-05-23T12:11:56;21.83;;;4.65;;
12112;SDS011;6120;52.250;8.478;2023-05-23T12:14:23;10.60;;;4.20;;
12112;SDS011;6120;52.250;8.478;2023-05-23T12:16:54;15.18;;;4.18;;
12112;SDS011;6120;52.250;8.478;2023-05-23T12:19:20;11.57;;;3.72;;
12112;SDS011;6120;52.250;8.478;2023-05-23T12:21:47;16.92;;;3.80;;
12112;SDS011;6120;52.250;8.478;2023-05-23T12:24:18;12.05;;;4.05;;
12112;SDS011;6120;52.250;8.478;2023-05-23T12:26:47;14.43;;;3.70;;
12112;SDS011;6120;52.250;8.478;2023-05-23T12:29:40;13.60;;;4.38;;
12112;SDS011;6120;52.250;8.478;2023-05-23T12:32:06;12.65;;;4.15;;
12112;SDS011;6120;52.250;8.478;2023-05-23T12:34:33;11.48;;;3.75;;
12112;SDS011;6120;52.250;8.478;2023-05-23T12:37:00;9.63;;;3.30;;
12112;SDS011;6120;52.250;8.478;2023-05-23T12:39:33;19.10;;;3.65;;
12112;SDS011;6120;52.250;8.478;2023-05-23T12:42:07;13.73;;;3.58;;
12112;SDS011;6120;52.250;8.478;2023-05-23T12:44:35;14.18;;;3.97;;
12112;SDS011;6120;52.250;8.478;2023-05-23T12:47:02;17.17;;;4.45;;
12112;SDS011;6120;52.250;8.478;2023-05-23T12:49:29;13.25;;;3.58;;
12112;SDS011;6120;52.250;8.478;2023-05-23T12:51:56;13.15;;;4.05;;
12112;SDS011;6120;52.250;8.478;2023-05-23T12:54:23;9.13;;;3.80;;
12112;SDS011;6120;52.250;8.478;2023-05-23T12:56:49;10.55;;;3.42;;
12112;SDS011;6120;52.250;8.478;2023-05-23T12:59:16;16.48;;;4.30;;
12112;SDS011;6120;52.250;8.478;2023-05-23T13:01:43;17.58;;;5.03;;
12112;SDS011;6120;52.250;8.478;2023-05-23T13:04:10;16.83;;;3.47;;
12112;SDS011;6120;52.250;8.478;2023-05-23T13:06:36;10.02;;;2.92;;
12112;SDS011;6120;52.250;8.478;2023-05-23T13:09:03;11.00;;;3.95;;
12112;SDS011;6120;52.250;8.478;2023-05-23T13:11:30;10.27;;;2.95;;
12112;SDS011;6120;52.250;8.478;2023-05-23T13:13:56;9.68;;;3.28;;
12112;SDS011;6120;52.250;8.478;2023-05-23T13:16:23;15.60;;;4.28;;
12112;SDS011;6120;52.250;8.478;2023-05-23T13:18:50;9.68;;;3.28;;
12112;SDS011;6120;52.250;8.478;2023-05-23T13:21:18;9.45;;;3.08;;
12112;SDS011;6120;52.250;8.478;2023-05-23T13:23:44;11.32;;;3.67;;
12112;SDS011;6120;52.250;8.478;2023-05-23T13:26:11;15.30;;;3.78;;
12112;SDS011;6120;52.250;8.478;2023-05-23T13:28:39;5.78;;;2.38;;
12112;SDS011;6120;52.250;8.478;2023-05-23T13:31:06;12.88;;;3.58;;
12112;SDS011;6120;52.250;8.478;2023-05-23T13:33:33;10.80;;;3.10;;
12112;SDS011;6120;52.250;8.478;2023-05-23T13:35:59;12.10;;;3.10;;
12112;SDS011;6120;52.250;8.478;2023-05-23T13:38:26;12.65;;;3.42;;
12112;SDS011;6120;52.250;8.478;2023-05-23T13:40:56;9.43;;;2.88;;
12112;SDS011;6120;52.250;8.478;2023-05-23T13:43:22;9.48;;;3.28;;
12112;SDS011;6120;52.250;8.478;2023-05-23T13:45:49;10.02;;;3.05;;
12112;SDS011;6120;52.250;8.478;2023-05-23T13:48:16;11.77;;;3.00;;
12112;SDS011;6120;52.250;8.478;2023-05-23T13:50:42;10.77;;;2.92;;
12112;SDS011;6120;52.250;8.478;2023-05-23T13:53:10;14.43;;;3.33;;
12112;SDS011;6120;52.250;8.478;2023-05-23T13:55:41;15.85;;;3.80;;
12112;SDS011;6120;52.250;8.478;2023-05-23T13:58:10;9.88;;;3.30;;
12112;SDS011;6120;52.250;8.478;2023-05-23T14:00:38;14.68;;;3.40;;
12112;SDS011;6120;52.250;8.478;2023-05-23T14:03:05;12.77;;;3.30;;
12112;SDS011;6120;52.250;8.478;2023-05-23T14:05:33;10.98;;;2.92;;
12112;SDS011;6120;52.250;8.478;2023-05-23T14:08:01;14.05;;;3.53;;
12112;SDS011;6120;52.250;8.478;2023-05-23T14:10:28;11.45;;;3.10;;
12112;SDS011;6120;52.250;8.478;2023-05-23T14:12:54;11.45;;;3.70;;
12112;SDS011;6120;52.250;8.478;2023-05-23T14:15:21;13.77;;;3.00;;
12112;SDS011;6120;52.250;8.478;2023-05-23T14:17:48;9.68;;;3.13;;
12112;SDS011;6120;52.250;8.478;2023-05-23T14:20:14;15.00;;;3.83;;
12112;SDS011;6120;52.250;8.478;2023-05-23T14:22:41;11.50;;;4.00;;
12112;SDS011;6120;52.250;8.478;2023-05-23T14:25:08;16.30;;;3.28;;
12112;SDS011;6120;52.250;8.478;2023-05-23T14:27:35;10.80;;;3.17;;
12112;SDS011;6120;52.250;8.478;2023-05-23T14:30:01;8.90;;;2.67;;
12112;SDS011;6120;52.250;8.478;2023-05-23T14:32:29;12.18;;;2.95;;
12112;SDS011;6120;52.250;8.478;2023-05-23T14:34:58;11.38;;;2.53;;
12112;SDS011;6120;52.250;8.478;2023-05-23T14:37:25;10.20;;;2.40;;
12112;SDS011;6120;52.250;8.478;2023-05-23T14:39:51;9.70;;;3.10;;
12112;SDS011;6120;52.250;8.478;2023-05-23T14:42:18;12.77;;;2.70;;
12112;SDS011;6120;52.250;8.478;2023-05-23T14:44:45;10.18;;;2.20;;
12112;SDS011;6120;52.250;8.478;2023-05-23T14:47:11;11.88;;;2.28;;
12112;SDS011;6120;52.250;8.478;2023-05-23T14:49:38;14.82;;;3.35;;
12112;SDS011;6120;52.250;8.478;2023-05-23T14:52:04;11.98;;;3.03;;
12112;SDS011;6120;52.250;8.478;2023-05-23T14:54:31;8.90;;;2.50;;
12112;SDS011;6120;52.250;8.478;2023-05-23T14:56:58;10.02;;;2.58;;
12112;SDS011;6120;52.250;8.478;2023-05-23T14:59:25;14.23;;;3.10;;
12112;SDS011;6120;52.250;8.478;2023-05-23T15:01:51;10.63;;;2.70;;
12112;SDS011;6120;52.250;8.478;2023-05-23T15:04:18;7.82;;;2.33;;
12112;SDS011;6120;52.250;8.478;2023-05-23T15:06:45;7.18;;;2.90;;
12112;SDS011;6120;52.250;8.478;2023-05-23T15:09:12;10.00;;;2.67;;
12112;SDS011;6120;52.250;8.478;2023-05-23T15:11:39;11.95;;;3.08;;
12112;SDS011;6120;52.250;8.478;2023-05-23T15:14:07;12.13;;;2.90;;
12112;SDS011;6120;52.250;8.478;2023-05-23T15:16:34;14.93;;;2.95;;
12112;SDS011;6120;52.250;8.478;2023-05-23T15:19:02;12.07;;;3.22;;
12112;SDS011;6120;52.250;8.478;2023-05-23T15:21:30;8.52;;;2.45;;